Harlem, MT (59526)

9:51 PM MDT on July 22, 2014 (GMT -0600)
farm (KMTHOGEL2) Elev 3104 ft | 48.81 °N, 108.54 °W | Change Station
Active Advisory: Fire Weather Watch

Current weather conditions updated 9 seconds ago

Clear
Clear
64.7 °F
Feels Like 64.7 °F
N
1.9
Wind Variable Wind from ESE
Gusts 2.0 mph

Tomorrow is forecast to be Much Warmer than today. Partly cloudy with a stray thunderstorm tomorrow night.

Today
High -- | Low -- °F
--% Chance of Precip.
Yesterday
High -- | Low -- °F
Precip. -- in
5:37 AM 9:05 PM
Waning Crescent, 13% visible
Pressure 30.12 in
Visibility 10.0 miles
Clouds Clear
Dew Point 50 °F
Humidity 60%
Rainfall 0.00 in
Snow Depth Not available.
UV 0 out of 12
Pollen 6.10 out of 12
Air Quality Not available.
Flu Activity Not available.
METAR KHVR 230253Z AUTO 08008KT 10SM CLR 25/13 A3015 RMK AO2 SLP197 T02500133 53000

More Conditions Fewer Conditions

Pressure 30.12 in
Visibility 10.0 miles
Clouds Clear
Dew Point 50 °F
Humidity 60%
Rainfall 0.00 in
Snow Depth Not available.
UV 0 out of 12
Pollen 6.10 out of 12
Air Quality Not available.
Flu Activity Not available.
METAR KHVR 230253Z AUTO 08008KT 10SM CLR 25/13 A3015 RMK AO2 SLP197 T02500133 53000

More Conditions Fewer Conditions

10-Day Weather Forecast

Almanac

Astronomy

Jul. 22, 2014 Rise Set
Actual Time 5:37 AM MDT 9:05 PM MDT
Civil Twilight 4:58 AM MDT 9:44 PM MDT
Nautical Twilight 4:06 AM MDT 10:36 PM MDT
Astronomical Twilight 2:56 AM MDT 11:45 PM MDT
Moon 2:16 AM MDT (7/22) 5:44 PM MDT (7/22)
Length of Visible Light 16h 46m
Length of Day
15h 28m
Tomorrow will be 2m 22s shorter.
Waning Crescent, 13% of the Moon is Illuminated
Today
Waning Crescent
Jul 26
New
Aug 3
First Quarter
Aug 10
Full
Aug 17
Last Quarter

Today's Extremes

State Highs State Lows

Community

WunderPhotos

Upload Photos

1,736,488 photos uploaded!

Nearby

Snow Depth

Station Depth Elevation
Crystal Lake 0 in 6050 ft
Onion Park 0 in 7410 ft
Dupuyer Creek 0 in 5750 ft
Waldron 0 in 5600 ft
Porcupine 0 in 6500 ft

Earthquake Activity

City Distance Mag. Time & Date
No recent earthquake activity has been reported nearby.
Minimum magnitude displayed is 2.5.

Coastal Water Temperatures

Place Temperature
No Stations Reporting

Nearby Weather Stations

Station Location Temp. Dew Point Humidity Wind Precip. Elev Updated Type
MesoWest HARLEM , Harlem, MT 70 °F 55 °F 59% ESE  at  - 0.00 in / hr 2357 ft 9:00 PM MDT MADIS
farm, Hogeland, MT 64.7 °F 50 °F 60% ESE  at  1.9 mph 0.00 in / hr 3104 ft 9:51 PM MDT Rapid Fire
MesoWest Big Flat / Turner , Hogeland, MT 64 °F 53 °F 68% East  at  - 0.00 in / hr 3103 ft 9:00 PM MDT MADIS
RAWS FORT BELKNAP MT, Hays, MT 70 °F 51 °F 51% SE  at  8 mph 0.00 in / hr 2665 ft 9:18 PM MDT MADIS

Show More Stations Show Fewer Stations